Flugplatz Hodenhagen

Für EDVH sind keine METAR/TAF Berichte vorhanden.
Es werden die Flugwettermeldungen vom Flugplatz Celle Airport in 33 km Entfernung angezeigt.

Bericht für ETHC

vom 07.03. um 02:20 UTC

Wind 4 kt aus 260°

Sichtweite 10 km oder mehr

Temperatur 2.0°C

Taupunkt -1.0°C

Luftfeuchtigkeit 80%

Luftdruck 1026 hPa

ETHC 070220Z AUTO 26004KT 9999 // ////// 02/M01 Q1026 ///
Keine Prognose (TAF) verfügbar.
Impressum